sensor_id;sensor_type;location;lat;lon;timestamp;temperature;humidity
78992;DHT22;72820;44.838;37.674;2024-03-02T00:00:10;6.21;53.35
78992;DHT22;72820;44.838;37.674;2024-03-02T00:01:15;6.21;53.46
78992;DHT22;72820;44.838;37.674;2024-03-02T00:02:16;6.17;53.52
78992;DHT22;72820;44.838;37.674;2024-03-02T00:03:18;6.20;53.63
78992;DHT22;72820;44.838;37.674;2024-03-02T00:04:20;6.16;53.62
78992;DHT22;72820;44.838;37.674;2024-03-02T00:05:22;6.13;53.73
78992;DHT22;72820;44.838;37.674;2024-03-02T00:06:23;6.14;53.56
78992;DHT22;72820;44.838;37.674;2024-03-02T00:07:25;6.13;53.61
78992;DHT22;72820;44.838;37.674;2024-03-02T00:08:26;6.11;53.59
78992;DHT22;72820;44.838;37.674;2024-03-02T00:09:29;6.10;53.62
78992;DHT22;72820;44.838;37.674;2024-03-02T00:10:37;6.14;53.74
78992;DHT22;72820;44.838;37.674;2024-03-02T00:11:40;6.13;53.58
78992;DHT22;72820;44.838;37.674;2024-03-02T00:12:42;6.09;53.67
78992;DHT22;72820;44.838;37.674;2024-03-02T00:13:45;6.14;53.37
78992;DHT22;72820;44.838;37.674;2024-03-02T00:14:46;6.11;53.63
78992;DHT22;72820;44.838;37.674;2024-03-02T00:15:52;6.14;53.45
78992;DHT22;72820;44.838;37.674;2024-03-02T00:16:55;6.14;52.85
78992;DHT22;72820;44.838;37.674;2024-03-02T00:17:57;6.17;53.17
78992;DHT22;72820;44.838;37.674;2024-03-02T00:19:03;6.25;52.90
78992;DHT22;72820;44.838;37.674;2024-03-02T00:20:09;6.24;52.71
78992;DHT22;72820;44.838;37.674;2024-03-02T00:21:11;6.27;52.38
78992;DHT22;72820;44.838;37.674;2024-03-02T00:22:14;6.30;52.47
78992;DHT22;72820;44.838;37.674;2024-03-02T00:23:16;6.31;52.61
78992;DHT22;72820;44.838;37.674;2024-03-02T00:24:30;6.31;52.97
78992;DHT22;72820;44.838;37.674;2024-03-02T00:25:42;6.25;53.21
78992;DHT22;72820;44.838;37.674;2024-03-02T00:26:44;6.17;53.45
78992;DHT22;72820;44.838;37.674;2024-03-02T00:27:47;6.13;53.52
78992;DHT22;72820;44.838;37.674;2024-03-02T00:28:54;6.14;53.08
78992;DHT22;72820;44.838;37.674;2024-03-02T00:29:57;6.16;53.39
78992;DHT22;72820;44.838;37.674;2024-03-02T00:31:05;6.17;53.39
78992;DHT22;72820;44.838;37.674;2024-03-02T00:32:15;6.18;53.02
78992;DHT22;72820;44.838;37.674;2024-03-02T00:33:19;6.21;52.56
78992;DHT22;72820;44.838;37.674;2024-03-02T00:34:21;6.24;52.95
78992;DHT22;72820;44.838;37.674;2024-03-02T00:35:23;6.24;52.82
78992;DHT22;72820;44.838;37.674;2024-03-02T00:36:26;6.27;52.82
78992;DHT22;72820;44.838;37.674;2024-03-02T00:37:30;6.28;53.01
78992;DHT22;72820;44.838;37.674;2024-03-02T00:38:32;6.24;52.95
78992;DHT22;72820;44.838;37.674;2024-03-02T00:39:34;6.24;53.32
78992;DHT22;72820;44.838;37.674;2024-03-02T00:40:36;6.20;53.14
78992;DHT22;72820;44.838;37.674;2024-03-02T00:41:40;6.22;52.88
78992;DHT22;72820;44.838;37.674;2024-03-02T00:42:43;6.25;52.53
78992;DHT22;72820;44.838;37.674;2024-03-02T00:43:49;6.34;52.38
78992;DHT22;72820;44.838;37.674;2024-03-02T00:44:53;6.38;52.45
78992;DHT22;72820;44.838;37.674;2024-03-02T00:45:54;6.44;52.32
78992;DHT22;72820;44.838;37.674;2024-03-02T00:46:56;6.42;52.27
78992;DHT22;72820;44.838;37.674;2024-03-02T00:48:00;6.42;52.33
78992;DHT22;72820;44.838;37.674;2024-03-02T00:49:17;6.41;52.54
78992;DHT22;72820;44.838;37.674;2024-03-02T00:50:20;6.34;52.49
78992;DHT22;72820;44.838;37.674;2024-03-02T00:51:24;6.38;52.59
78992;DHT22;72820;44.838;37.674;2024-03-02T00:52:26;6.30;52.74
78992;DHT22;72820;44.838;37.674;2024-03-02T00:53:27;6.30;52.93
78992;DHT22;72820;44.838;37.674;2024-03-02T00:54:29;6.32;52.72
78992;DHT22;72820;44.838;37.674;2024-03-02T00:55:31;6.34;52.86
78992;DHT22;72820;44.838;37.674;2024-03-02T00:56:36;6.37;52.64
78992;DHT22;72820;44.838;37.674;2024-03-02T00:57:38;6.39;52.67
78992;DHT22;72820;44.838;37.674;2024-03-02T00:58:39;6.41;52.55
78992;DHT22;72820;44.838;37.674;2024-03-02T00:59:41;6.41;52.68
78992;DHT22;72820;44.838;37.674;2024-03-02T01:00:42;6.37;52.83
78992;DHT22;72820;44.838;37.674;2024-03-02T01:01:44;6.38;52.74
78992;DHT22;72820;44.838;37.674;2024-03-02T01:02:45;6.38;52.92
78992;DHT22;72820;44.838;37.674;2024-03-02T01:03:47;6.35;52.98
78992;DHT22;72820;44.838;37.674;2024-03-02T01:04:49;6.30;53.18
78992;DHT22;72820;44.838;37.674;2024-03-02T01:05:51;6.25;53.30
78992;DHT22;72820;44.838;37.674;2024-03-02T01:06:53;6.22;53.23
78992;DHT22;72820;44.838;37.674;2024-03-02T01:07:54;6.25;53.23
78992;DHT22;72820;44.838;37.674;2024-03-02T01:08:55;6.25;53.27
78992;DHT22;72820;44.838;37.674;2024-03-02T01:09:57;6.25;53.25
78992;DHT22;72820;44.838;37.674;2024-03-02T01:10:58;6.25;53.55
78992;DHT22;72820;44.838;37.674;2024-03-02T01:12:00;6.22;53.41
78992;DHT22;72820;44.838;37.674;2024-03-02T01:13:02;6.21;53.65
78992;DHT22;72820;44.838;37.674;2024-03-02T01:14:03;6.17;53.72
78992;DHT22;72820;44.838;37.674;2024-03-02T01:15:05;6.16;53.79
78992;DHT22;72820;44.838;37.674;2024-03-02T01:16:09;6.14;53.81
78992;DHT22;72820;44.838;37.674;2024-03-02T01:17:10;6.16;53.75
78992;DHT22;72820;44.838;37.674;2024-03-02T01:18:12;6.09;53.97
78992;DHT22;72820;44.838;37.674;2024-03-02T01:19:13;6.07;54.00
78992;DHT22;72820;44.838;37.674;2024-03-02T01:20:16;6.09;54.13
78992;DHT22;72820;44.838;37.674;2024-03-02T01:21:17;6.07;54.10
78992;DHT22;72820;44.838;37.674;2024-03-02T01:22:18;6.00;54.25
78992;DHT22;72820;44.838;37.674;2024-03-02T01:23:26;5.92;54.50
78992;DHT22;72820;44.838;37.674;2024-03-02T01:24:27;5.82;54.84
78992;DHT22;72820;44.838;37.674;2024-03-02T01:25:29;5.75;55.04
78992;DHT22;72820;44.838;37.674;2024-03-02T01:26:30;5.69;55.31
78992;DHT22;72820;44.838;37.674;2024-03-02T01:27:32;5.52;55.74
78992;DHT22;72820;44.838;37.674;2024-03-02T01:28:33;5.45;56.16
78992;DHT22;72820;44.838;37.674;2024-03-02T01:29:34;5.39;56.33
78992;DHT22;72820;44.838;37.674;2024-03-02T01:30:36;5.28;56.59
78992;DHT22;72820;44.838;37.674;2024-03-02T01:31:37;5.23;56.83
78992;DHT22;72820;44.838;37.674;2024-03-02T01:32:41;5.24;57.02
78992;DHT22;72820;44.838;37.674;2024-03-02T01:33:42;5.20;57.15
78992;DHT22;72820;44.838;37.674;2024-03-02T01:34:43;5.10;57.35
78992;DHT22;72820;44.838;37.674;2024-03-02T01:35:45;4.99;57.68
78992;DHT22;72820;44.838;37.674;2024-03-02T01:36:46;4.89;58.11
78992;DHT22;72820;44.838;37.674;2024-03-02T01:37:47;4.79;58.42
78992;DHT22;72820;44.838;37.674;2024-03-02T01:38:49;4.68;58.79
78992;DHT22;72820;44.838;37.674;2024-03-02T01:39:51;4.65;58.89
78992;DHT22;72820;44.838;37.674;2024-03-02T01:40:52;4.64;58.96
78992;DHT22;72820;44.838;37.674;2024-03-02T01:41:53;4.61;59.14
78992;DHT22;72820;44.838;37.674;2024-03-02T01:42:55;4.62;59.27
78992;DHT22;72820;44.838;37.674;2024-03-02T01:43:59;4.66;59.24
78992;DHT22;72820;44.838;37.674;2024-03-02T01:45:00;4.66;59.21
78992;DHT22;72820;44.838;37.674;2024-03-02T01:46:01;4.71;58.86
78992;DHT22;72820;44.838;37.674;2024-03-02T01:47:03;4.66;59.01
78992;DHT22;72820;44.838;37.674;2024-03-02T01:48:06;4.71;59.02
78992;DHT22;72820;44.838;37.674;2024-03-02T01:49:08;4.68;58.94
78992;DHT22;72820;44.838;37.674;2024-03-02T01:50:11;4.79;58.72
78992;DHT22;72820;44.838;37.674;2024-03-02T01:51:12;4.93;58.33
78992;DHT22;72820;44.838;37.674;2024-03-02T01:52:14;5.00;58.26
78992;DHT22;72820;44.838;37.674;2024-03-02T01:53:15;5.10;57.91
78992;DHT22;72820;44.838;37.674;2024-03-02T01:54:17;5.10;57.85
78992;DHT22;72820;44.838;37.674;2024-03-02T01:55:19;5.16;57.68
78992;DHT22;72820;44.838;37.674;2024-03-02T01:56:20;5.21;57.32
78992;DHT22;72820;44.838;37.674;2024-03-02T01:57:22;5.27;57.34
78992;DHT22;72820;44.838;37.674;2024-03-02T01:58:23;5.31;57.16
78992;DHT22;72820;44.838;37.674;2024-03-02T01:59:25;5.34;57.11
78992;DHT22;72820;44.838;37.674;2024-03-02T02:00:26;5.39;56.97
78992;DHT22;72820;44.838;37.674;2024-03-02T02:01:28;5.39;57.08
78992;DHT22;72820;44.838;37.674;2024-03-02T02:02:29;5.41;57.00
78992;DHT22;72820;44.838;37.674;2024-03-02T02:03:31;5.41;56.64
78992;DHT22;72820;44.838;37.674;2024-03-02T02:04:32;5.45;56.80
78992;DHT22;72820;44.838;37.674;2024-03-02T02:05:34;5.48;56.40
78992;DHT22;72820;44.838;37.674;2024-03-02T02:06:36;5.55;56.41
78992;DHT22;72820;44.838;37.674;2024-03-02T02:07:37;5.56;56.28
78992;DHT22;72820;44.838;37.674;2024-03-02T02:08:39;5.60;56.16
78992;DHT22;72820;44.838;37.674;2024-03-02T02:09:43;5.68;55.86
78992;DHT22;72820;44.838;37.674;2024-03-02T02:10:45;5.72;55.75
78992;DHT22;72820;44.838;37.674;2024-03-02T02:11:46;5.76;55.63
78992;DHT22;72820;44.838;37.674;2024-03-02T02:12:48;5.75;55.53
78992;DHT22;72820;44.838;37.674;2024-03-02T02:13:49;5.77;55.55
78992;DHT22;72820;44.838;37.674;2024-03-02T02:14:51;5.77;55.64
78992;DHT22;72820;44.838;37.674;2024-03-02T02:15:52;5.73;55.65
78992;DHT22;72820;44.838;37.674;2024-03-02T02:16:54;5.76;55.52
78992;DHT22;72820;44.838;37.674;2024-03-02T02:17:56;5.77;55.63
78992;DHT22;72820;44.838;37.674;2024-03-02T02:18:59;5.80;55.60
78992;DHT22;72820;44.838;37.674;2024-03-02T02:20:01;5.80;55.43
78992;DHT22;72820;44.838;37.674;2024-03-02T02:21:03;5.83;55.37
78992;DHT22;72820;44.838;37.674;2024-03-02T02:22:04;5.75;55.69
78992;DHT22;72820;44.838;37.674;2024-03-02T02:23:06;5.62;56.15
78992;DHT22;72820;44.838;37.674;2024-03-02T02:24:09;5.58;56.30
78992;DHT22;72820;44.838;37.674;2024-03-02T02:25:10;5.54;56.42
78992;DHT22;72820;44.838;37.674;2024-03-02T02:26:12;5.49;56.67
78992;DHT22;72820;44.838;37.674;2024-03-02T02:27:13;5.48;56.56
78992;DHT22;72820;44.838;37.674;2024-03-02T02:28:16;5.39;56.83
78992;DHT22;72820;44.838;37.674;2024-03-02T02:29:17;5.27;57.22
78992;DHT22;72820;44.838;37.674;2024-03-02T02:30:20;5.10;57.67
78992;DHT22;72820;44.838;37.674;2024-03-02T02:31:22;4.92;58.31
78992;DHT22;72820;44.838;37.674;2024-03-02T02:32:23;4.90;58.48
78992;DHT22;72820;44.838;37.674;2024-03-02T02:33:25;4.89;58.48
78992;DHT22;72820;44.838;37.674;2024-03-02T02:34:26;4.85;58.70
78992;DHT22;72820;44.838;37.674;2024-03-02T02:35:27;4.89;58.76
78992;DHT22;72820;44.838;37.674;2024-03-02T02:36:31;4.93;58.59
78992;DHT22;72820;44.838;37.674;2024-03-02T02:37:33;4.97;58.44
78992;DHT22;72820;44.838;37.674;2024-03-02T02:38:36;5.01;58.29
78992;DHT22;72820;44.838;37.674;2024-03-02T02:39:39;5.00;58.35
78992;DHT22;72820;44.838;37.674;2024-03-02T02:40:40;4.99;58.42
78992;DHT22;72820;44.838;37.674;2024-03-02T02:41:42;4.85;58.73
78992;DHT22;72820;44.838;37.674;2024-03-02T02:42:43;4.76;59.03
78992;DHT22;72820;44.838;37.674;2024-03-02T02:43:45;4.71;59.06
78992;DHT22;72820;44.838;37.674;2024-03-02T02:44:46;4.52;59.42
78992;DHT22;72820;44.838;37.674;2024-03-02T02:45:47;4.37;60.13
78992;DHT22;72820;44.838;37.674;2024-03-02T02:46:49;4.30;60.44
78992;DHT22;72820;44.838;37.674;2024-03-02T02:47:50;4.24;60.56
78992;DHT22;72820;44.838;37.674;2024-03-02T02:48:52;4.10;60.94
78992;DHT22;72820;44.838;37.674;2024-03-02T02:49:54;4.09;61.22
78992;DHT22;72820;44.838;37.674;2024-03-02T02:50:56;4.04;61.14
78992;DHT22;72820;44.838;37.674;2024-03-02T02:51:58;4.02;61.37
78992;DHT22;72820;44.838;37.674;2024-03-02T02:52:59;4.06;61.45
78992;DHT22;72820;44.838;37.674;2024-03-02T02:54:01;4.06;61.36
78992;DHT22;72820;44.838;37.674;2024-03-02T02:55:09;4.00;61.32
78992;DHT22;72820;44.838;37.674;2024-03-02T02:56:11;4.00;61.50
78992;DHT22;72820;44.838;37.674;2024-03-02T02:57:13;3.93;61.50
78992;DHT22;72820;44.838;37.674;2024-03-02T02:58:14;3.86;61.93
78992;DHT22;72820;44.838;37.674;2024-03-02T02:59:16;3.87;62.15
78992;DHT22;72820;44.838;37.674;2024-03-02T03:00:18;3.86;61.94
78992;DHT22;72820;44.838;37.674;2024-03-02T03:01:20;3.75;62.05
78992;DHT22;72820;44.838;37.674;2024-03-02T03:02:22;3.66;62.42
78992;DHT22;72820;44.838;37.674;2024-03-02T03:03:23;3.54;62.68
78992;DHT22;72820;44.838;37.674;2024-03-02T03:04:25;3.45;63.01
78992;DHT22;72820;44.838;37.674;2024-03-02T03:05:27;3.38;63.15
78992;DHT22;72820;44.838;37.674;2024-03-02T03:06:28;3.30;63.43
78992;DHT22;72820;44.838;37.674;2024-03-02T03:07:29;3.23;63.68
78992;DHT22;72820;44.838;37.674;2024-03-02T03:08:31;3.14;63.99
78992;DHT22;72820;44.838;37.674;2024-03-02T03:09:32;3.10;64.12
78992;DHT22;72820;44.838;37.674;2024-03-02T03:10:34;2.99;64.47
78992;DHT22;72820;44.838;37.674;2024-03-02T03:11:35;2.89;64.76
78992;DHT22;72820;44.838;37.674;2024-03-02T03:12:37;2.78;65.15
78992;DHT22;72820;44.838;37.674;2024-03-02T03:13:38;2.75;65.33
78992;DHT22;72820;44.838;37.674;2024-03-02T03:14:42;2.71;65.54
78992;DHT22;72820;44.838;37.674;2024-03-02T03:15:44;2.66;65.75
78992;DHT22;72820;44.838;37.674;2024-03-02T03:16:46;2.65;65.74
78992;DHT22;72820;44.838;37.674;2024-03-02T03:17:49;2.59;65.89
78992;DHT22;72820;44.838;37.674;2024-03-02T03:18:52;2.59;66.04
78992;DHT22;72820;44.838;37.674;2024-03-02T03:19:54;2.55;65.98
78992;DHT22;72820;44.838;37.674;2024-03-02T03:20:56;2.51;66.15
78992;DHT22;72820;44.838;37.674;2024-03-02T03:21:57;2.45;66.36
78992;DHT22;72820;44.838;37.674;2024-03-02T03:22:59;2.38;66.45
78992;DHT22;72820;44.838;37.674;2024-03-02T03:24:00;2.33;66.86
78992;DHT22;72820;44.838;37.674;2024-03-02T03:25:02;2.31;67.06
78992;DHT22;72820;44.838;37.674;2024-03-02T03:26:04;2.23;67.23
78992;DHT22;72820;44.838;37.674;2024-03-02T03:27:06;2.19;67.44
78992;DHT22;72820;44.838;37.674;2024-03-02T03:28:08;2.20;67.57
78992;DHT22;72820;44.838;37.674;2024-03-02T03:29:10;2.23;67.50
78992;DHT22;72820;44.838;37.674;2024-03-02T03:30:12;2.17;67.52
78992;DHT22;72820;44.838;37.674;2024-03-02T03:31:13;2.07;67.75
78992;DHT22;72820;44.838;37.674;2024-03-02T03:32:15;2.05;68.04
78992;DHT22;72820;44.838;37.674;2024-03-02T03:33:17;1.98;68.32
78992;DHT22;72820;44.838;37.674;2024-03-02T03:34:19;1.91;68.46
78992;DHT22;72820;44.838;37.674;2024-03-02T03:35:20;1.89;68.75
78992;DHT22;72820;44.838;37.674;2024-03-02T03:36:22;1.85;68.82
78992;DHT22;72820;44.838;37.674;2024-03-02T03:37:23;1.82;69.02
78992;DHT22;72820;44.838;37.674;2024-03-02T03:38:26;1.81;69.06
78992;DHT22;72820;44.838;37.674;2024-03-02T03:39:28;1.82;68.96
78992;DHT22;72820;44.838;37.674;2024-03-02T03:40:29;1.81;69.00
78992;DHT22;72820;44.838;37.674;2024-03-02T03:41:31;1.76;69.22
78992;DHT22;72820;44.838;37.674;2024-03-02T03:42:32;1.78;69.18
78992;DHT22;72820;44.838;37.674;2024-03-02T03:43:33;1.74;69.13
78992;DHT22;72820;44.838;37.674;2024-03-02T03:44:35;1.74;69.23
78992;DHT22;72820;44.838;37.674;2024-03-02T03:45:36;1.67;69.39
78992;DHT22;72820;44.838;37.674;2024-03-02T03:46:39;1.61;69.67
78992;DHT22;72820;44.838;37.674;2024-03-02T03:47:41;1.64;69.76
78992;DHT22;72820;44.838;37.674;2024-03-02T03:48:43;1.64;69.68
78992;DHT22;72820;44.838;37.674;2024-03-02T03:49:44;1.59;69.81
78992;DHT22;72820;44.838;37.674;2024-03-02T03:50:45;1.58;69.88
78992;DHT22;72820;44.838;37.674;2024-03-02T03:51:47;1.52;70.14
78992;DHT22;72820;44.838;37.674;2024-03-02T03:52:48;1.51;70.10
78992;DHT22;72820;44.838;37.674;2024-03-02T03:53:50;1.47;70.41
78992;DHT22;72820;44.838;37.674;2024-03-02T03:54:52;1.50;70.50
78992;DHT22;72820;44.838;37.674;2024-03-02T03:55:53;1.48;70.46
78992;DHT22;72820;44.838;37.674;2024-03-02T03:56:55;1.47;70.49
78992;DHT22;72820;44.838;37.674;2024-03-02T03:57:57;1.48;70.69
78992;DHT22;72820;44.838;37.674;2024-03-02T03:58:58;1.52;70.48
78992;DHT22;72820;44.838;37.674;2024-03-02T04:00:01;1.57;70.41
78992;DHT22;72820;44.838;37.674;2024-03-02T04:01:02;1.61;70.23
78992;DHT22;72820;44.838;37.674;2024-03-02T04:02:04;1.62;69.96
78992;DHT22;72820;44.838;37.674;2024-03-02T04:03:05;1.65;69.99
78992;DHT22;72820;44.838;37.674;2024-03-02T04:04:07;1.64;69.84
78992;DHT22;72820;44.838;37.674;2024-03-02T04:05:08;1.65;69.93
78992;DHT22;72820;44.838;37.674;2024-03-02T04:06:11;1.59;69.97
78992;DHT22;72820;44.838;37.674;2024-03-02T04:07:14;1.61;69.98
78992;DHT22;72820;44.838;37.674;2024-03-02T04:08:17;1.59;69.86
78992;DHT22;72820;44.838;37.674;2024-03-02T04:09:18;1.57;69.93
78992;DHT22;72820;44.838;37.674;2024-03-02T04:10:20;1.57;70.07
78992;DHT22;72820;44.838;37.674;2024-03-02T04:11:22;1.55;70.22
78992;DHT22;72820;44.838;37.674;2024-03-02T04:12:23;1.54;70.40
78992;DHT22;72820;44.838;37.674;2024-03-02T04:13:24;1.50;70.47
78992;DHT22;72820;44.838;37.674;2024-03-02T04:14:26;1.51;70.51
78992;DHT22;72820;44.838;37.674;2024-03-02T04:15:27;1.50;70.47
78992;DHT22;72820;44.838;37.674;2024-03-02T04:16:29;1.54;70.38
78992;DHT22;72820;44.838;37.674;2024-03-02T04:17:31;1.52;70.37
78992;DHT22;72820;44.838;37.674;2024-03-02T04:18:33;1.48;70.62
78992;DHT22;72820;44.838;37.674;2024-03-02T04:19:35;1.51;70.76
78992;DHT22;72820;44.838;37.674;2024-03-02T04:20:36;1.54;70.55
78992;DHT22;72820;44.838;37.674;2024-03-02T04:21:38;1.52;70.48
78992;DHT22;72820;44.838;37.674;2024-03-02T04:22:39;1.54;70.51
78992;DHT22;72820;44.838;37.674;2024-03-02T04:23:40;1.59;70.53
78992;DHT22;72820;44.838;37.674;2024-03-02T04:24:43;1.58;70.39
78992;DHT22;72820;44.838;37.674;2024-03-02T04:25:44;1.59;70.48
78992;DHT22;72820;44.838;37.674;2024-03-02T04:26:46;1.61;70.35
78992;DHT22;72820;44.838;37.674;2024-03-02T04:27:47;1.54;70.42
78992;DHT22;72820;44.838;37.674;2024-03-02T04:28:49;1.48;70.69
78992;DHT22;72820;44.838;37.674;2024-03-02T04:29:50;1.48;70.90
78992;DHT22;72820;44.838;37.674;2024-03-02T04:30:52;1.48;70.82
78992;DHT22;72820;44.838;37.674;2024-03-02T04:31:54;1.52;70.82
78992;DHT22;72820;44.838;37.674;2024-03-02T04:32:56;1.52;70.70
78992;DHT22;72820;44.838;37.674;2024-03-02T04:33:57;1.55;70.70
78992;DHT22;72820;44.838;37.674;2024-03-02T04:34:58;1.52;70.75
78992;DHT22;72820;44.838;37.674;2024-03-02T04:36:00;1.59;70.78
78992;DHT22;72820;44.838;37.674;2024-03-02T04:37:01;1.59;70.63
78992;DHT22;72820;44.838;37.674;2024-03-02T04:38:03;1.58;70.73
78992;DHT22;72820;44.838;37.674;2024-03-02T04:39:05;1.58;70.70
78992;DHT22;72820;44.838;37.674;2024-03-02T04:40:11;1.64;70.55
78992;DHT22;72820;44.838;37.674;2024-03-02T04:41:12;1.64;70.59
78992;DHT22;72820;44.838;37.674;2024-03-02T04:42:14;1.64;70.66
78992;DHT22;72820;44.838;37.674;2024-03-02T04:43:15;1.61;70.81
78992;DHT22;72820;44.838;37.674;2024-03-02T04:44:17;1.62;70.95
78992;DHT22;72820;44.838;37.674;2024-03-02T04:45:19;1.69;70.72
78992;DHT22;72820;44.838;37.674;2024-03-02T04:46:20;1.79;70.51
78992;DHT22;72820;44.838;37.674;2024-03-02T04:47:21;1.82;70.30
78992;DHT22;72820;44.838;37.674;2024-03-02T04:48:23;1.81;70.40
78992;DHT22;72820;44.838;37.674;2024-03-02T04:49:25;1.75;70.53
78992;DHT22;72820;44.838;37.674;2024-03-02T04:50:26;1.71;70.75
78992;DHT22;72820;44.838;37.674;2024-03-02T04:51:27;1.75;70.73
78992;DHT22;72820;44.838;37.674;2024-03-02T04:52:29;1.78;70.80
78992;DHT22;72820;44.838;37.674;2024-03-02T04:53:30;1.85;70.64
78992;DHT22;72820;44.838;37.674;2024-03-02T04:54:32;1.86;70.63
78992;DHT22;72820;44.838;37.674;2024-03-02T04:55:33;1.89;70.57
78992;DHT22;72820;44.838;37.674;2024-03-02T04:56:35;1.91;70.53
78992;DHT22;72820;44.838;37.674;2024-03-02T04:57:45;1.89;70.83
78992;DHT22;72820;44.838;37.674;2024-03-02T04:58:48;1.98;70.61
78992;DHT22;72820;44.838;37.674;2024-03-02T04:59:49;1.96;70.54
78992;DHT22;72820;44.838;37.674;2024-03-02T05:00:50;2.02;70.56
78992;DHT22;72820;44.838;37.674;2024-03-02T05:01:52;2.10;70.37
78992;DHT22;72820;44.838;37.674;2024-03-02T05:02:53;2.17;70.35
78992;DHT22;72820;44.838;37.674;2024-03-02T05:03:55;2.26;70.26
78992;DHT22;72820;44.838;37.674;2024-03-02T05:04:57;2.29;69.97
78992;DHT22;72820;44.838;37.674;2024-03-02T05:05:58;2.34;69.91
78992;DHT22;72820;44.838;37.674;2024-03-02T05:07:00;2.38;69.72
78992;DHT22;72820;44.838;37.674;2024-03-02T05:08:01;2.42;69.52
78992;DHT22;72820;44.838;37.674;2024-03-02T05:09:03;2.44;69.53
78992;DHT22;72820;44.838;37.674;2024-03-02T05:10:04;2.48;69.32
78992;DHT22;72820;44.838;37.674;2024-03-02T05:11:06;2.57;69.34
78992;DHT22;72820;44.838;37.674;2024-03-02T05:12:25;2.61;69.07
78992;DHT22;72820;44.838;37.674;2024-03-02T05:13:56;2.66;68.71
78992;DHT22;72820;44.838;37.674;2024-03-02T05:14:57;2.69;69.48
78992;DHT22;72820;44.838;37.674;2024-03-02T05:15:59;2.76;68.89
78992;DHT22;72820;44.838;37.674;2024-03-02T05:17:00;2.76;68.75
78992;DHT22;72820;44.838;37.674;2024-03-02T05:18:01;2.78;68.75
78992;DHT22;72820;44.838;37.674;2024-03-02T05:19:06;2.79;68.81
78992;DHT22;72820;44.838;37.674;2024-03-02T05:20:08;2.81;68.73
78992;DHT22;72820;44.838;37.674;2024-03-02T05:21:10;2.84;68.47
78992;DHT22;72820;44.838;37.674;2024-03-02T05:22:12;2.91;68.44
78992;DHT22;72820;44.838;37.674;2024-03-02T05:23:14;3.14;67.35
78992;DHT22;72820;44.838;37.674;2024-03-02T05:24:15;3.20;67.31
78992;DHT22;72820;44.838;37.674;2024-03-02T05:25:17;3.23;67.49
78992;DHT22;72820;44.838;37.674;2024-03-02T05:26:19;3.35;66.82
78992;DHT22;72820;44.838;37.674;2024-03-02T05:27:20;3.51;65.78
78992;DHT22;72820;44.838;37.674;2024-03-02T05:28:22;3.68;65.89
78992;DHT22;72820;44.838;37.674;2024-03-02T05:29:23;3.76;65.64
78992;DHT22;72820;44.838;37.674;2024-03-02T05:30:24;3.90;64.67
78992;DHT22;72820;44.838;37.674;2024-03-02T05:31:27;4.14;63.62
78992;DHT22;72820;44.838;37.674;2024-03-02T05:32:28;4.37;62.59
78992;DHT22;72820;44.838;37.674;2024-03-02T05:33:30;4.54;61.78
78992;DHT22;72820;44.838;37.674;2024-03-02T05:34:32;4.77;60.67
78992;DHT22;72820;44.838;37.674;2024-03-02T05:35:36;5.01;59.68
78992;DHT22;72820;44.838;37.674;2024-03-02T05:36:37;5.21;59.14
78992;DHT22;72820;44.838;37.674;2024-03-02T05:37:40;5.37;58.90
78992;DHT22;72820;44.838;37.674;2024-03-02T05:38:41;5.48;58.71
78992;DHT22;72820;44.838;37.674;2024-03-02T05:39:43;5.56;58.07
78992;DHT22;72820;44.838;37.674;2024-03-02T05:40:45;5.70;57.46
78992;DHT22;72820;44.838;37.674;2024-03-02T05:41:46;5.82;56.83
78992;DHT22;72820;44.838;37.674;2024-03-02T05:42:48;5.93;56.62
78992;DHT22;72820;44.838;37.674;2024-03-02T05:43:49;6.04;56.67
78992;DHT22;72820;44.838;37.674;2024-03-02T05:44:51;6.27;64.09
78992;DHT22;72820;44.838;37.674;2024-03-02T05:45:52;6.44;56.91
78992;DHT22;72820;44.838;37.674;2024-03-02T05:46:54;6.56;58.67
78992;DHT22;72820;44.838;37.674;2024-03-02T05:47:56;6.68;55.24
78992;DHT22;72820;44.838;37.674;2024-03-02T05:48:59;6.77;57.12
78992;DHT22;72820;44.838;37.674;2024-03-02T05:50:02;6.90;61.02
78992;DHT22;72820;44.838;37.674;2024-03-02T05:51:05;7.03;54.51
78992;DHT22;72820;44.838;37.674;2024-03-02T05:52:06;7.07;54.59
78992;DHT22;72820;44.838;37.674;2024-03-02T05:53:08;7.14;53.91
78992;DHT22;72820;44.838;37.674;2024-03-02T05:54:09;7.24;53.57
78992;DHT22;72820;44.838;37.674;2024-03-02T05:55:10;7.25;53.29
78992;DHT22;72820;44.838;37.674;2024-03-02T05:56:12;7.34;53.10
78992;DHT22;72820;44.838;37.674;2024-03-02T05:57:14;7.39;52.60
78992;DHT22;72820;44.838;37.674;2024-03-02T05:58:27;7.48;52.43
78992;DHT22;72820;44.838;37.674;2024-03-02T05:59:35;7.51;51.97
78992;DHT22;72820;44.838;37.674;2024-03-02T06:00:36;7.54;51.49
78992;DHT22;72820;44.838;37.674;2024-03-02T06:01:41;7.56;51.51
78992;DHT22;72820;44.838;37.674;2024-03-02T06:02:45;7.61;51.44
78992;DHT22;72820;44.838;37.674;2024-03-02T06:03:48;7.63;51.34
78992;DHT22;72820;44.838;37.674;2024-03-02T06:04:50;7.69;50.69
78992;DHT22;72820;44.838;37.674;2024-03-02T06:05:51;7.73;50.53
78992;DHT22;72820;44.838;37.674;2024-03-02T06:06:53;7.75;50.45
78992;DHT22;72820;44.838;37.674;2024-03-02T06:07:55;7.77;50.43
78992;DHT22;72820;44.838;37.674;2024-03-02T06:08:56;7.84;50.51
78992;DHT22;72820;44.838;37.674;2024-03-02T06:09:58;7.89;50.52
78992;DHT22;72820;44.838;37.674;2024-03-02T06:11:00;7.91;50.43
78992;DHT22;72820;44.838;37.674;2024-03-02T06:12:01;7.98;50.54
78992;DHT22;72820;44.838;37.674;2024-03-02T06:13:02;8.03;50.26
78992;DHT22;72820;44.838;37.674;2024-03-02T06:14:08;8.08;49.88
78992;DHT22;72820;44.838;37.674;2024-03-02T06:15:10;8.13;49.78
78992;DHT22;72820;44.838;37.674;2024-03-02T06:16:12;8.18;49.69
78992;DHT22;72820;44.838;37.674;2024-03-02T06:17:13;8.24;49.19
78992;DHT22;72820;44.838;37.674;2024-03-02T06:18:15;8.28;49.42
78992;DHT22;72820;44.838;37.674;2024-03-02T06:19:16;8.35;49.47
78992;DHT22;72820;44.838;37.674;2024-03-02T06:20:17;8.41;49.44
78992;DHT22;72820;44.838;37.674;2024-03-02T06:21:19;8.45;48.77
78992;DHT22;72820;44.838;37.674;2024-03-02T06:22:21;8.50;48.76
78992;DHT22;72820;44.838;37.674;2024-03-02T06:23:25;8.53;48.65
78992;DHT22;72820;44.838;37.674;2024-03-02T06:24:27;8.56;49.06
78992;DHT22;72820;44.838;37.674;2024-03-02T06:25:28;8.60;48.57
78992;DHT22;72820;44.838;37.674;2024-03-02T06:26:30;8.70;48.79
78992;DHT22;72820;44.838;37.674;2024-03-02T06:27:32;8.76;48.36
78992;DHT22;72820;44.838;37.674;2024-03-02T06:28:34;8.80;48.26
78992;DHT22;72820;44.838;37.674;2024-03-02T06:29:36;8.87;48.51
78992;DHT22;72820;44.838;37.674;2024-03-02T06:30:37;8.91;47.74
78992;DHT22;72820;44.838;37.674;2024-03-02T06:31:38;8.96;47.59
78992;DHT22;72820;44.838;37.674;2024-03-02T06:32:40;9.00;47.74